Time;durP1;ratioP1;P1;durP2;ratioP2;P2;SDS_P1;SDS_P2;PMS_P1;PMS_P2;Temp;Humidity;BMP_temperature;BMP_pressure;BME280_temperature;BME280_humidity;BME280_pressure;Samples;Min_cycle;Max_cycle;Signal;HPM_P1;HPM_P2
2021/10/18 00:00:39;;;;;;;22.73;14.65;;;;;;;;;;5012753;28;20230;-70
2021/10/18 00:03:04;;;;;;;24.50;15.55;;;;;;;;;;5023310;28;20250;-70
2021/10/18 00:05:29;;;;;;;23.98;14.38;;;;;;;;;;5014079;28;20525;-70
2021/10/18 00:07:55;;;;;;;21.42;14.63;;;;;;;;;;5018022;28;20182;-70
2021/10/18 00:10:20;;;;;;;22.00;14.07;;;;;;;;;;5018918;28;20174;-70
2021/10/18 00:12:46;;;;;;;21.35;15.43;;;;;;;;;;5011911;28;20221;-70
2021/10/18 00:15:14;;;;;;;22.95;15.48;;;;;;;;;;5019026;28;20622;-70
2021/10/18 00:17:39;;;;;;;24.15;14.18;;;;;;;;;;5012809;28;20972;-70
2021/10/18 00:20:06;;;;;;;23.15;15.30;;;;;;;;;;5020693;28;20201;-70
2021/10/18 00:22:32;;;;;;;19.98;14.52;;;;;;;;;;5012223;28;20213;-70
2021/10/18 00:24:58;;;;;;;21.33;13.90;;;;;;;;;;5018435;28;20910;-70
2021/10/18 00:27:23;;;;;;;23.92;14.90;;;;;;;;;;5014486;28;20193;-70
2021/10/18 00:29:48;;;;;;;21.70;14.55;;;;;;;;;;5019961;28;20197;-70
2021/10/18 00:32:14;;;;;;;24.98;15.32;;;;;;;;;;5010054;28;20285;-70
2021/10/18 00:34:40;;;;;;;26.23;14.30;;;;;;;;;;5027440;28;20514;-70
2021/10/18 00:37:05;;;;;;;23.67;14.75;;;;;;;;;;5014467;28;20193;-70
2021/10/18 00:39:30;;;;;;;26.10;14.85;;;;;;;;;;5020642;28;20234;-71
2021/10/18 00:41:56;;;;;;;27.73;15.90;;;;;;;;;;5022266;28;20636;-70
2021/10/18 00:44:21;;;;;;;22.35;16.00;;;;;;;;;;5011161;28;20191;-70
2021/10/18 00:46:47;;;;;;;22.85;16.73;;;;;;;;;;5016165;28;20267;-70
2021/10/18 00:49:12;;;;;;;24.75;16.25;;;;;;;;;;5014910;28;20194;-70
2021/10/18 00:51:38;;;;;;;27.60;17.27;;;;;;;;;;5022494;28;20194;-70
2021/10/18 00:54:04;;;;;;;25.48;16.67;;;;;;;;;;5013205;28;20198;-70
2021/10/18 00:56:29;;;;;;;26.25;16.95;;;;;;;;;;5021375;28;20252;-70
2021/10/18 00:58:58;;;;;;;26.48;16.48;;;;;;;;;;5011586;28;20198;-70
2021/10/18 01:01:24;;;;;;;28.88;16.75;;;;;;;;;;5022661;28;20222;-70
2021/10/18 01:03:49;;;;;;;27.45;17.13;;;;;;;;;;5010883;28;20249;-70
2021/10/18 01:06:14;;;;;;;26.98;16.67;;;;;;;;;;5022701;28;20209;-69
2021/10/18 01:08:41;;;;;;;28.48;16.98;;;;;;;;;;5011549;28;20595;-70
2021/10/18 01:11:07;;;;;;;25.98;16.38;;;;;;;;;;5021192;28;20213;-70
2021/10/18 01:13:33;;;;;;;27.17;18.23;;;;;;;;;;5016146;28;20582;-70
2021/10/18 01:16:01;;;;;;;29.02;17.80;;;;;;;;;;5015301;28;20183;-70
2021/10/18 01:18:27;;;;;;;25.35;17.60;;;;;;;;;;5016761;28;20178;-70
2021/10/18 01:20:52;;;;;;;27.13;18.05;;;;;;;;;;5014160;28;20208;-70
2021/10/18 01:23:18;;;;;;;30.25;18.15;;;;;;;;;;5022324;28;20194;-70
2021/10/18 01:25:43;;;;;;;22.40;15.55;;;;;;;;;;5015775;28;20232;-70
2021/10/18 01:28:09;;;;;;;28.17;19.10;;;;;;;;;;5019952;28;20208;-70
2021/10/18 01:30:34;;;;;;;27.90;18.83;;;;;;;;;;5012717;28;20260;-70
2021/10/18 01:32:59;;;;;;;29.88;19.33;;;;;;;;;;5019679;28;20641;-70
2021/10/18 01:35:25;;;;;;;31.95;19.88;;;;;;;;;;5014738;28;20182;-70
2021/10/18 01:37:51;;;;;;;28.42;19.70;;;;;;;;;;5021489;28;20547;-70
2021/10/18 01:40:20;;;;;;;28.55;18.92;;;;;;;;;;5012378;28;20272;-70
2021/10/18 01:42:46;;;;;;;31.08;19.67;;;;;;;;;;5019879;28;20194;-70
2021/10/18 01:45:14;;;;;;;33.70;20.92;;;;;;;;;;5024066;28;20540;-70
2021/10/18 01:47:39;;;;;;;30.48;20.73;;;;;;;;;;5010785;28;20280;-70
2021/10/18 01:50:10;;;;;;;30.13;20.80;;;;;;;;;;5015873;28;20272;-70
2021/10/18 01:52:35;;;;;;;31.55;20.98;;;;;;;;;;5013508;28;20322;-70
2021/10/18 01:55:01;;;;;;;30.45;20.58;;;;;;;;;;5020270;28;20567;-70
2021/10/18 01:57:27;;;;;;;35.80;21.70;;;;;;;;;;5011961;28;20404;-70
2021/10/18 01:59:52;;;;;;;32.90;21.52;;;;;;;;;;5019531;28;20229;-70
2021/10/18 02:02:17;;;;;;;35.47;21.67;;;;;;;;;;5009724;28;20277;-70
2021/10/18 02:04:42;;;;;;;34.33;22.20;;;;;;;;;;5018472;28;20224;-70
2021/10/18 02:07:08;;;;;;;39.33;23.07;;;;;;;;;;5015804;28;20214;-70
2021/10/18 02:09:33;;;;;;;32.78;23.05;;;;;;;;;;5024666;28;20243;-70
2021/10/18 02:11:59;;;;;;;36.37;21.97;;;;;;;;;;5011785;28;20244;-70
2021/10/18 02:14:24;;;;;;;33.20;23.02;;;;;;;;;;5022554;28;20182;-70
2021/10/18 02:16:49;;;;;;;32.63;21.83;;;;;;;;;;5019212;28;20184;-70
2021/10/18 02:19:14;;;;;;;34.92;22.85;;;;;;;;;;5013818;28;20186;-70
2021/10/18 02:21:40;;;;;;;33.58;21.92;;;;;;;;;;5018190;28;20193;-71
2021/10/18 02:24:05;;;;;;;35.20;21.95;;;;;;;;;;5014706;28;20289;-70
2021/10/18 02:26:30;;;;;;;32.97;21.52;;;;;;;;;;5018149;28;20628;-70
2021/10/18 02:28:58;;;;;;;36.40;23.33;;;;;;;;;;5012802;28;20229;-70
2021/10/18 02:31:23;;;;;;;35.28;21.83;;;;;;;;;;5017982;28;20641;-70
2021/10/18 02:33:48;;;;;;;35.60;22.80;;;;;;;;;;5010660;28;20222;-70
2021/10/18 02:36:14;;;;;;;34.43;22.13;;;;;;;;;;5021958;28;20221;-70
2021/10/18 02:38:39;;;;;;;32.90;20.90;;;;;;;;;;5015510;28;20492;-70
2021/10/18 02:41:06;;;;;;;32.63;20.95;;;;;;;;;;5020163;28;20553;-70
2021/10/18 02:43:31;;;;;;;30.50;19.77;;;;;;;;;;5015520;28;20190;-70
2021/10/18 02:45:57;;;;;;;34.47;20.67;;;;;;;;;;5016170;28;20195;-70
2021/10/18 02:48:22;;;;;;;31.13;20.67;;;;;;;;;;5017410;28;20236;-70
2021/10/18 02:50:48;;;;;;;29.20;18.23;;;;;;;;;;5012237;28;20209;-70
2021/10/18 02:53:13;;;;;;;30.90;19.38;;;;;;;;;;5022525;28;20214;-70
2021/10/18 02:55:39;;;;;;;29.67;19.67;;;;;;;;;;5009678;28;20179;-70
2021/10/18 02:58:04;;;;;;;26.17;18.23;;;;;;;;;;5020062;28;20210;-70
2021/10/18 03:00:30;;;;;;;28.75;19.77;;;;;;;;;;5010425;28;20221;-70
2021/10/18 03:02:55;;;;;;;29.88;17.05;;;;;;;;;;5018666;28;20189;-70
2021/10/18 03:05:21;;;;;;;29.55;17.00;;;;;;;;;;5015989;28;20199;-70
2021/10/18 03:07:51;;;;;;;19.48;13.82;;;;;;;;;;5022789;28;20182;-70
2021/10/18 03:10:17;;;;;;;26.15;16.83;;;;;;;;;;5020773;28;20225;-70
2021/10/18 03:12:42;;;;;;;30.73;17.45;;;;;;;;;;5021662;28;20603;-70
2021/10/18 03:15:08;;;;;;;23.40;16.63;;;;;;;;;;5016962;28;20573;-70
2021/10/18 03:17:33;;;;;;;23.80;16.85;;;;;;;;;;5024655;28;20361;-70
2021/10/18 03:19:58;;;;;;;23.33;15.43;;;;;;;;;;5022503;28;20186;-70
2021/10/18 03:22:24;;;;;;;21.33;15.65;;;;;;;;;;5015885;28;20285;-70
2021/10/18 03:24:49;;;;;;;25.23;15.75;;;;;;;;;;5039954;28;20195;-70
2021/10/18 03:27:14;;;;;;;27.40;16.10;;;;;;;;;;5014674;28;21865;-70
2021/10/18 03:29:40;;;;;;;26.33;16.50;;;;;;;;;;5022715;28;20236;-71
2021/10/18 03:32:05;;;;;;;24.42;15.70;;;;;;;;;;5010728;28;20640;-70
2021/10/18 03:34:31;;;;;;;25.13;16.30;;;;;;;;;;5022444;28;20190;-70
2021/10/18 03:36:56;;;;;;;25.05;15.20;;;;;;;;;;5015042;28;20205;-71
2021/10/18 03:39:21;;;;;;;24.70;15.85;;;;;;;;;;5020317;28;20193;-70
2021/10/18 03:41:47;;;;;;;25.40;15.77;;;;;;;;;;5009421;28;20193;-70
2021/10/18 03:44:12;;;;;;;26.05;15.38;;;;;;;;;;5024470;28;20183;-70
2021/10/18 03:46:37;;;;;;;26.65;15.88;;;;;;;;;;5013047;28;20553;-71
2021/10/18 03:49:03;;;;;;;22.88;14.55;;;;;;;;;;5021242;28;20189;-70
2021/10/18 03:51:28;;;;;;;21.30;14.80;;;;;;;;;;5021991;28;20204;-70
2021/10/18 03:53:54;;;;;;;23.40;14.70;;;;;;;;;;5012468;28;20297;-70
2021/10/18 03:56:19;;;;;;;22.08;14.70;;;;;;;;;;5023862;28;20743;-70
2021/10/18 03:58:44;;;;;;;22.02;15.23;;;;;;;;;;5016463;28;20731;-71
2021/10/18 04:01:10;;;;;;;24.83;15.27;;;;;;;;;;5022337;28;20265;-70
2021/10/18 04:03:36;;;;;;;22.83;15.27;;;;;;;;;;5013999;28;20235;-70
2021/10/18 04:06:02;;;;;;;19.65;13.38;;;;;;;;;;5023642;28;20244;-67
2021/10/18 04:08:30;;;;;;;22.45;14.45;;;;;;;;;;5016425;28;20554;-70
2021/10/18 04:10:56;;;;;;;21.13;13.02;;;;;;;;;;5024800;28;20229;-69
2021/10/18 04:13:21;;;;;;;21.83;14.70;;;;;;;;;;5015295;28;20554;-69
2021/10/18 04:15:47;;;;;;;19.88;13.90;;;;;;;;;;5023558;28;20192;-70
2021/10/18 04:18:12;;;;;;;20.20;13.82;;;;;;;;;;5012529;28;20194;-70
2021/10/18 04:20:37;;;;;;;21.35;15.00;;;;;;;;;;5021378;28;20190;-70
2021/10/18 04:23:03;;;;;;;27.20;15.38;;;;;;;;;;5020647;28;20182;-70
2021/10/18 04:25:28;;;;;;;21.05;14.18;;;;;;;;;;5016844;28;20202;-69
2021/10/18 04:27:54;;;;;;;22.02;14.55;;;;;;;;;;5021624;28;20186;-69
2021/10/18 04:30:19;;;;;;;21.33;14.05;;;;;;;;;;5010334;28;20750;-69
2021/10/18 04:32:44;;;;;;;19.95;13.90;;;;;;;;;;5022623;28;20235;-69
2021/10/18 04:35:10;;;;;;;23.20;14.35;;;;;;;;;;5013769;28;20708;-70
2021/10/18 04:37:35;;;;;;;26.45;15.55;;;;;;;;;;5023165;28;20194;-69
2021/10/18 04:40:00;;;;;;;23.95;15.38;;;;;;;;;;5015856;28;20222;-70
2021/10/18 04:42:26;;;;;;;22.40;15.20;;;;;;;;;;5023059;28;20273;-70
2021/10/18 04:44:51;;;;;;;24.52;15.43;;;;;;;;;;5011993;28;20642;-70
2021/10/18 04:47:17;;;;;;;23.23;14.88;;;;;;;;;;5020287;28;20195;-70
2021/10/18 04:49:42;;;;;;;23.17;15.00;;;;;;;;;;5023881;28;20186;-70
2021/10/18 04:52:07;;;;;;;24.45;15.48;;;;;;;;;;5014949;28;20268;-71
2021/10/18 04:54:32;;;;;;;21.60;14.52;;;;;;;;;;5022261;28;20217;-69
2021/10/18 04:56:58;;;;;;;28.92;15.65;;;;;;;;;;5015100;28;20198;-69
2021/10/18 04:59:23;;;;;;;23.23;14.48;;;;;;;;;;5023991;28;20281;-70
2021/10/18 05:01:48;;;;;;;22.10;14.13;;;;;;;;;;5014626;28;20230;-69
2021/10/18 05:04:14;;;;;;;27.60;14.52;;;;;;;;;;5024634;28;20230;-69
2021/10/18 05:06:39;;;;;;;19.15;14.25;;;;;;;;;;5013685;28;20215;-70
2021/10/18 05:09:05;;;;;;;19.85;13.13;;;;;;;;;;5022977;28;20198;-70
2021/10/18 05:11:30;;;;;;;21.55;14.50;;;;;;;;;;5014090;28;20185;-70
2021/10/18 05:13:55;;;;;;;25.33;14.82;;;;;;;;;;5020772;28;20564;-70
2021/10/18 05:16:21;;;;;;;23.13;14.32;;;;;;;;;;5014898;28;20659;-70
2021/10/18 05:18:46;;;;;;;23.58;14.77;;;;;;;;;;5014392;28;20206;-70
2021/10/18 05:21:12;;;;;;;23.08;14.40;;;;;;;;;;5020101;28;20186;-70
2021/10/18 05:23:37;;;;;;;21.58;14.68;;;;;;;;;;5019432;28;20185;-70
2021/10/18 05:26:02;;;;;;;21.73;14.50;;;;;;;;;;5019429;28;20210;-70
2021/10/18 05:28:28;;;;;;;23.05;13.70;;;;;;;;;;5012300;28;20197;-70
2021/10/18 05:30:53;;;;;;;25.42;14.80;;;;;;;;;;5020266;28;20202;-70
2021/10/18 05:33:19;;;;;;;25.45;14.02;;;;;;;;;;5012222;28;20189;-71
2021/10/18 05:35:46;;;;;;;22.20;14.40;;;;;;;;;;5021287;28;20186;-71
2021/10/18 05:38:16;;;;;;;21.58;14.18;;;;;;;;;;5014719;28;20221;-71
2021/10/18 05:40:41;;;;;;;22.30;14.95;;;;;;;;;;5019238;28;20189;-71
2021/10/18 05:43:06;;;;;;;23.65;14.48;;;;;;;;;;5015031;28;21184;-71
2021/10/18 05:45:33;;;;;;;23.23;13.45;;;;;;;;;;5021234;28;20201;-70
2021/10/18 05:48:04;;;;;;;16.98;12.60;;;;;;;;;;5010299;28;25230;-71
2021/10/18 05:50:35;;;;;;;22.15;13.27;;;;;;;;;;5018047;28;20542;-71
2021/10/18 05:53:00;;;;;;;21.27;14.52;;;;;;;;;;5013942;28;20228;-71
2021/10/18 05:55:26;;;;;;;20.48;13.98;;;;;;;;;;5013754;28;20968;-71
2021/10/18 05:57:57;;;;;;;20.98;14.20;;;;;;;;;;5022087;28;20216;-71
2021/10/18 06:00:24;;;;;;;19.80;13.10;;;;;;;;;;5010334;28;20513;-71
2021/10/18 06:02:50;;;;;;;21.42;14.02;;;;;;;;;;5018357;28;20198;-71
2021/10/18 06:05:17;;;;;;;24.95;14.27;;;;;;;;;;5011137;28;20852;-71
2021/10/18 06:07:43;;;;;;;24.13;14.57;;;;;;;;;;5020432;28;20198;-71
2021/10/18 06:10:09;;;;;;;23.42;13.85;;;;;;;;;;5011274;28;20190;-71
2021/10/18 06:12:35;;;;;;;22.52;14.50;;;;;;;;;;5020439;28;20178;-71
2021/10/18 06:15:02;;;;;;;21.17;14.30;;;;;;;;;;5013829;28;20209;-71
2021/10/18 06:17:27;;;;;;;24.00;15.13;;;;;;;;;;5019374;28;20281;-71
2021/10/18 06:19:53;;;;;;;21.98;14.70;;;;;;;;;;5014146;28;20281;-71
2021/10/18 06:22:18;;;;;;;24.23;15.52;;;;;;;;;;5016468;28;20428;-71
2021/10/18 06:24:43;;;;;;;23.52;13.48;;;;;;;;;;5009914;28;20284;-71
2021/10/18 06:27:10;;;;;;;20.83;12.82;;;;;;;;;;5018002;28;20209;-71
2021/10/18 06:29:35;;;;;;;23.55;14.55;;;;;;;;;;5015153;28;20510;-71
2021/10/18 06:32:01;;;;;;;20.55;13.13;;;;;;;;;;5013749;28;20198;-71
2021/10/18 06:34:26;;;;;;;24.42;15.15;;;;;;;;;;5017247;28;20803;-71
2021/10/18 06:36:52;;;;;;;22.85;14.38;;;;;;;;;;5010473;28;20183;-71
2021/10/18 06:39:17;;;;;;;22.08;14.52;;;;;;;;;;5020669;28;20182;-71
2021/10/18 06:41:42;;;;;;;22.92;14.20;;;;;;;;;;5010988;28;20186;-70
2021/10/18 06:44:08;;;;;;;24.33;13.75;;;;;;;;;;5022309;28;20198;-71
2021/10/18 06:46:33;;;;;;;25.35;15.20;;;;;;;;;;5011138;28;20238;-71
2021/10/18 06:48:59;;;;;;;22.83;14.82;;;;;;;;;;5020567;28;20248;-71
2021/10/18 06:51:30;;;;;;;24.33;13.55;;;;;;;;;;5017648;28;20183;-71
2021/10/18 06:53:56;;;;;;;22.30;14.63;;;;;;;;;;5024087;28;20563;-71
2021/10/18 06:56:21;;;;;;;21.20;14.60;;;;;;;;;;5018109;28;20256;-71
2021/10/18 06:58:46;;;;;;;25.23;14.73;;;;;;;;;;5022186;28;20224;-70
2021/10/18 07:01:12;;;;;;;23.38;15.05;;;;;;;;;;5026327;28;20284;-71
2021/10/18 07:03:37;;;;;;;24.02;15.80;;;;;;;;;;5016421;28;20186;-71
2021/10/18 07:06:03;;;;;;;24.85;15.05;;;;;;;;;;5023860;28;20202;-71
2021/10/18 07:08:28;;;;;;;25.02;15.65;;;;;;;;;;5015302;28;20181;-71
2021/10/18 07:10:53;;;;;;;26.70;16.13;;;;;;;;;;5024497;28;20646;-70
2021/10/18 07:13:19;;;;;;;27.87;15.27;;;;;;;;;;5015753;28;20228;-70
2021/10/18 07:15:44;;;;;;;24.55;16.00;;;;;;;;;;5025188;28;20186;-71
2021/10/18 07:18:27;;;;;;;32.37;15.57;;;;;;;;;;4905018;28;10000913;-70
2021/10/18 07:20:52;;;;;;;23.58;15.02;;;;;;;;;;5018733;28;20413;-71
2021/10/18 07:23:18;;;;;;;24.33;15.43;;;;;;;;;;5012200;28;20209;-70
2021/10/18 07:25:44;;;;;;;23.88;15.77;;;;;;;;;;5022198;28;20230;-71
2021/10/18 07:28:09;;;;;;;24.38;15.68;;;;;;;;;;5013347;28;20198;-71
2021/10/18 07:30:36;;;;;;;21.77;15.07;;;;;;;;;;5021640;28;20193;-71
2021/10/18 07:33:01;;;;;;;26.00;16.27;;;;;;;;;;5011537;28;20635;-71
2021/10/18 07:35:33;;;;;;;25.95;16.00;;;;;;;;;;5016851;28;20336;-71
2021/10/18 07:37:59;;;;;;;23.90;16.00;;;;;;;;;;5019928;28;21498;-71
2021/10/18 07:40:28;;;;;;;23.20;16.40;;;;;;;;;;5011657;28;20566;-71
2021/10/18 07:42:54;;;;;;;28.77;16.90;;;;;;;;;;5019176;28;20244;-71
2021/10/18 07:45:20;;;;;;;21.73;14.85;;;;;;;;;;5011269;28;20217;-71
2021/10/18 07:47:46;;;;;;;25.80;16.55;;;;;;;;;;5022190;28;20209;-71
2021/10/18 07:50:13;;;;;;;24.90;15.40;;;;;;;;;;5013977;28;20225;-71
2021/10/18 07:52:40;;;;;;;25.80;16.20;;;;;;;;;;5021252;28;20312;-71
2021/10/18 07:55:12;;;;;;;23.92;16.02;;;;;;;;;;5011951;28;20190;-71
2021/10/18 07:57:39;;;;;;;25.27;15.85;;;;;;;;;;5015817;28;20356;-71
2021/10/18 08:00:05;;;;;;;25.15;15.85;;;;;;;;;;5013573;28;20222;-71
2021/10/18 08:02:30;;;;;;;23.67;16.15;;;;;;;;;;5019011;28;20571;-71
2021/10/18 08:04:56;;;;;;;24.27;15.25;;;;;;;;;;5009794;28;21348;-71
2021/10/18 08:07:26;;;;;;;27.40;17.52;;;;;;;;;;5021991;28;20477;-71
2021/10/18 08:09:52;;;;;;;27.75;15.85;;;;;;;;;;5020369;28;20673;-71
2021/10/18 08:12:17;;;;;;;25.58;16.35;;;;;;;;;;5012044;28;20239;-70
2021/10/18 08:14:42;;;;;;;25.92;15.93;;;;;;;;;;5020531;28;20207;-70
2021/10/18 08:17:08;;;;;;;26.70;16.50;;;;;;;;;;5008189;28;20493;-70
2021/10/18 08:19:33;;;;;;;24.38;16.35;;;;;;;;;;5018301;28;21513;-71
2021/10/18 08:21:58;;;;;;;26.65;17.17;;;;;;;;;;5010283;28;20210;-71
2021/10/18 08:24:24;;;;;;;26.02;16.25;;;;;;;;;;5021290;28;20653;-71
2021/10/18 08:26:49;;;;;;;27.38;15.68;;;;;;;;;;5012906;28;20224;-71
2021/10/18 08:29:14;;;;;;;27.02;16.83;;;;;;;;;;5017850;28;20194;-71
2021/10/18 08:31:40;;;;;;;27.25;18.05;;;;;;;;;;5013351;28;20634;-70
2021/10/18 08:34:05;;;;;;;28.52;17.88;;;;;;;;;;5018854;28;20194;-70
2021/10/18 08:36:35;;;;;;;28.20;17.98;;;;;;;;;;5012086;28;20596;-71
2021/10/18 08:41:45;;;;;;;24.95;14.73;;;;;;;;;;5010522;28;20202;-71
2021/10/18 08:44:14;;;;;;;29.92;18.55;;;;;;;;;;5017951;28;20182;-71
2021/10/18 08:46:40;;;;;;;29.23;17.65;;;;;;;;;;5013687;28;20219;-71
2021/10/18 08:49:05;;;;;;;30.13;18.40;;;;;;;;;;5017191;28;20568;-72
2021/10/18 08:51:31;;;;;;;27.65;17.20;;;;;;;;;;5019355;28;20519;-72
2021/10/18 08:53:56;;;;;;;25.67;16.25;;;;;;;;;;5008959;28;20202;-71
2021/10/18 08:56:22;;;;;;;25.75;16.75;;;;;;;;;;5018575;28;20205;-71
2021/10/18 08:58:47;;;;;;;23.88;17.60;;;;;;;;;;5011847;28;20591;-71
2021/10/18 09:01:13;;;;;;;32.30;18.15;;;;;;;;;;5017194;28;20321;-69
2021/10/18 09:03:39;;;;;;;24.95;16.80;;;;;;;;;;5009067;28;20225;-70
2021/10/18 09:06:18;;;;;;;28.30;16.67;;;;;;;;;;5019672;28;20292;-70
2021/10/18 09:08:50;;;;;;;29.98;17.23;;;;;;;;;;5007777;28;20219;-71
2021/10/18 09:11:21;;;;;;;25.05;16.55;;;;;;;;;;4667431;28;10000763;-70
2021/10/18 09:13:53;;;;;;;27.05;16.65;;;;;;;;;;5010045;28;20198;-70
2021/10/18 09:16:44;;;;;;;24.38;15.48;;;;;;;;;;5019945;28;20186;-70
2021/10/18 09:19:24;;;;;;;25.35;15.70;;;;;;;;;;5012375;28;20789;-70
2021/10/18 09:21:55;;;;;;;25.88;16.67;;;;;;;;;;5016980;28;20543;-70
2021/10/18 09:24:29;;;;;;;23.77;15.18;;;;;;;;;;5008398;28;20276;-70
2021/10/18 09:26:56;;;;;;;27.20;16.15;;;;;;;;;;5017495;28;20221;-70
2021/10/18 09:29:22;;;;;;;27.52;16.00;;;;;;;;;;5012237;28;20191;-70
2021/10/18 09:31:59;;;;;;;28.13;16.02;;;;;;;;;;5018730;28;20185;-70
2021/10/18 09:34:34;;;;;;;24.48;15.38;;;;;;;;;;5008074;28;20180;-70
2021/10/18 09:37:11;;;;;;;25.08;14.80;;;;;;;;;;5020310;28;20189;-70
2021/10/18 09:39:44;;;;;;;24.83;14.45;;;;;;;;;;5011230;28;20192;-70
2021/10/18 09:42:12;;;;;;;21.77;13.30;;;;;;;;;;5016906;28;20194;-72
2021/10/18 10:53:13;;;;;;;12.45;9.00;;;;;;;;;;5014608;28;20205;-71
2021/10/18 10:55:39;;;;;;;12.50;9.13;;;;;;;;;;5017957;28;20351;-72
2021/10/18 10:58:33;;;;;;;12.10;8.48;;;;;;;;;;5020103;28;20655;-70
2021/10/18 11:00:59;;;;;;;14.63;9.20;;;;;;;;;;5017408;28;20236;-70
2021/10/18 11:03:31;;;;;;;12.80;9.02;;;;;;;;;;5019189;28;20283;-71
2021/10/18 11:06:02;;;;;;;12.95;8.77;;;;;;;;;;5017623;28;20202;-72
2021/10/18 11:08:30;;;;;;;13.73;8.85;;;;;;;;;;5022272;28;20577;-71
2021/10/18 11:10:55;;;;;;;13.60;8.80;;;;;;;;;;5010999;28;20201;-71
2021/10/18 11:13:21;;;;;;;14.27;9.70;;;;;;;;;;5021401;28;20277;-70
2021/10/18 11:15:46;;;;;;;12.95;8.93;;;;;;;;;;5012114;28;20220;-70
2021/10/18 11:18:22;;;;;;;17.08;9.05;;;;;;;;;;5017552;28;20197;-71
2021/10/18 11:20:47;;;;;;;16.75;9.48;;;;;;;;;;5012549;28;20182;-70
2021/10/18 11:23:12;;;;;;;13.00;8.95;;;;;;;;;;5017628;28;20192;-71
2021/10/18 11:25:39;;;;;;;12.32;8.50;;;;;;;;;;5014658;28;20257;-71
2021/10/18 11:28:07;;;;;;;14.73;9.57;;;;;;;;;;5019777;28;20618;-70
2021/10/18 11:30:34;;;;;;;17.85;9.30;;;;;;;;;;5015504;28;20276;-70
2021/10/18 11:33:04;;;;;;;13.23;9.40;;;;;;;;;;5021638;28;20209;-70
2021/10/18 11:35:32;;;;;;;15.93;9.32;;;;;;;;;;5016092;28;20190;-70
2021/10/18 11:38:04;;;;;;;16.00;8.75;;;;;;;;;;5021300;28;20189;-70
2021/10/18 11:40:31;;;;;;;15.15;8.73;;;;;;;;;;5017407;28;20220;-70
2021/10/18 11:43:14;;;;;;;14.27;9.10;;;;;;;;;;5019135;28;20187;-71
2021/10/18 11:45:48;;;;;;;14.30;9.07;;;;;;;;;;5009989;28;20212;-71
2021/10/18 11:48:20;;;;;;;14.07;9.05;;;;;;;;;;5020847;28;20182;-70
2021/10/18 11:50:48;;;;;;;17.60;9.13;;;;;;;;;;5013689;28;20214;-72
2021/10/18 11:53:17;;;;;;;16.20;8.95;;;;;;;;;;5015783;28;21207;-70
2021/10/18 11:55:52;;;;;;;16.55;9.43;;;;;;;;;;5024002;28;20664;-70
2021/10/18 11:58:21;;;;;;;16.33;9.38;;;;;;;;;;5009342;28;20185;-71
2021/10/18 12:00:47;;;;;;;16.55;8.35;;;;;;;;;;4670484;28;10000062;-71
2021/10/18 12:03:17;;;;;;;17.42;9.50;;;;;;;;;;5008106;28;20656;-70
2021/10/18 12:05:43;;;;;;;14.52;9.48;;;;;;;;;;5021238;28;20542;-68
2021/10/18 12:08:11;;;;;;;16.60;8.77;;;;;;;;;;5008884;28;20229;-71
2021/10/18 12:10:37;;;;;;;19.35;9.50;;;;;;;;;;5013932;28;20210;-70
2021/10/18 12:13:26;;;;;;;16.83;9.38;;;;;;;;;;5009871;28;20243;-70
2021/10/18 12:15:57;;;;;;;15.27;9.70;;;;;;;;;;5016897;28;20424;-70
2021/10/18 12:18:35;;;;;;;16.45;9.23;;;;;;;;;;5010233;28;20186;-71
2021/10/18 12:21:04;;;;;;;16.48;9.38;;;;;;;;;;5021991;28;20182;-71
2021/10/18 12:23:35;;;;;;;18.10;9.15;;;;;;;;;;5011305;28;20325;-71
2021/10/18 12:26:05;;;;;;;15.93;9.80;;;;;;;;;;5022496;28;20202;-70
2021/10/18 12:28:39;;;;;;;18.15;9.55;;;;;;;;;;5007887;28;20292;-70
2021/10/18 12:31:06;;;;;;;17.08;9.75;;;;;;;;;;5019597;28;20190;-70
2021/10/18 12:33:40;;;;;;;15.35;9.60;;;;;;;;;;5011509;28;20182;-71
2021/10/18 12:36:06;;;;;;;13.02;8.98;;;;;;;;;;5018464;28;20921;-71
2021/10/18 12:38:36;;;;;;;16.48;9.70;;;;;;;;;;5012652;28;20248;-71
2021/10/18 12:41:15;;;;;;;14.25;9.00;;;;;;;;;;5017395;28;20187;-70
2021/10/18 12:43:41;;;;;;;12.82;8.68;;;;;;;;;;5012791;28;20234;-70
2021/10/18 12:46:28;;;;;;;16.08;8.88;;;;;;;;;;5021159;28;20818;-72
2021/10/18 12:49:08;;;;;;;16.13;8.95;;;;;;;;;;5012138;28;20190;-71
2021/10/18 12:51:35;;;;;;;15.38;9.07;;;;;;;;;;5019194;28;20549;-70
2021/10/18 12:54:23;;;;;;;15.20;8.50;;;;;;;;;;5013333;28;20633;-71
2021/10/18 12:57:06;;;;;;;15.63;9.48;;;;;;;;;;5022408;28;20202;-68
2021/10/18 12:59:34;;;;;;;16.65;9.02;;;;;;;;;;5011112;28;20194;-70
2021/10/18 13:02:19;;;;;;;16.35;9.15;;;;;;;;;;5018142;28;20249;-72
2021/10/18 13:05:16;;;;;;;16.17;8.52;;;;;;;;;;5015104;28;20264;-71
2021/10/18 13:07:51;;;;;;;16.65;8.90;;;;;;;;;;5019613;28;20368;-71
2021/10/18 13:10:16;;;;;;;15.63;8.77;;;;;;;;;;5012322;28;20206;-71
2021/10/18 13:12:43;;;;;;;14.10;9.02;;;;;;;;;;5022969;28;20174;-72
2021/10/18 13:15:10;;;;;;;15.40;8.93;;;;;;;;;;5012656;28;20194;-70
2021/10/18 13:17:36;;;;;;;13.68;8.63;;;;;;;;;;4665082;28;10000298;-73
2021/10/18 13:20:02;;;;;;;16.33;9.00;;;;;;;;;;5020098;28;20558;-71
2021/10/18 13:22:27;;;;;;;15.10;9.00;;;;;;;;;;5013512;28;20194;-70
2021/10/18 13:24:53;;;;;;;17.65;9.50;;;;;;;;;;5018959;28;20204;-71
2021/10/18 13:27:19;;;;;;;13.40;8.63;;;;;;;;;;5009126;28;20312;-71
2021/10/18 13:29:45;;;;;;;12.68;8.55;;;;;;;;;;5015380;28;20198;-71
2021/10/18 13:32:12;;;;;;;20.90;8.77;;;;;;;;;;5007647;28;20197;-70
2021/10/18 13:34:37;;;;;;;15.25;8.70;;;;;;;;;;5021042;28;20194;-70
2021/10/18 13:37:03;;;;;;;14.40;8.73;;;;;;;;;;5007772;28;20196;-71
2021/10/18 13:39:29;;;;;;;16.13;8.15;;;;;;;;;;5017419;28;20193;-70
2021/10/18 13:41:55;;;;;;;13.07;8.38;;;;;;;;;;5005936;28;20675;-71
2021/10/18 13:44:21;;;;;;;16.00;8.45;;;;;;;;;;5016779;28;20201;-72
2021/10/18 13:46:47;;;;;;;14.38;7.75;;;;;;;;;;5006224;28;20544;-71
2021/10/18 13:49:12;;;;;;;12.98;7.88;;;;;;;;;;5015428;28;20549;-71
2021/10/18 13:51:38;;;;;;;12.80;7.80;;;;;;;;;;5018876;28;20638;-70
2021/10/18 13:54:04;;;;;;;16.38;8.55;;;;;;;;;;5011462;28;20711;-71
2021/10/18 13:56:29;;;;;;;14.82;9.05;;;;;;;;;;5016598;28;20359;-71
2021/10/18 13:58:55;;;;;;;14.73;8.90;;;;;;;;;;5010856;28;20202;-70
2021/10/18 14:01:20;;;;;;;14.73;9.13;;;;;;;;;;5018214;28;20249;-69
2021/10/18 14:03:46;;;;;;;11.32;7.82;;;;;;;;;;5009707;28;20619;-70
2021/10/18 14:06:12;;;;;;;14.45;9.05;;;;;;;;;;5014918;28;20638;-69
2021/10/18 14:08:38;;;;;;;13.45;8.18;;;;;;;;;;5007843;28;20185;-69
2021/10/18 14:11:04;;;;;;;12.98;8.63;;;;;;;;;;5018017;28;20518;-70
2021/10/18 14:13:30;;;;;;;15.60;8.60;;;;;;;;;;5012541;28;20614;-69
2021/10/18 14:15:55;;;;;;;14.00;8.25;;;;;;;;;;5020848;28;20186;-70
2021/10/18 14:18:21;;;;;;;13.65;8.55;;;;;;;;;;5005168;28;20182;-70
2021/10/18 14:20:46;;;;;;;11.50;7.85;;;;;;;;;;5014751;28;20195;-70
2021/10/18 14:23:11;;;;;;;16.88;8.13;;;;;;;;;;5016064;28;20217;-70
2021/10/18 14:25:37;;;;;;;13.65;8.43;;;;;;;;;;5011794;28;20244;-70
2021/10/18 14:28:03;;;;;;;14.45;8.05;;;;;;;;;;5013048;28;20182;-70
2021/10/18 14:30:29;;;;;;;12.40;7.80;;;;;;;;;;5006211;28;20202;-70
2021/10/18 14:32:55;;;;;;;13.70;8.15;;;;;;;;;;5016781;28;20552;-70
2021/10/18 14:35:21;;;;;;;12.50;8.20;;;;;;;;;;5011943;28;20331;-70
2021/10/18 14:37:46;;;;;;;13.32;8.55;;;;;;;;;;5015527;28;20756;-70
2021/10/18 14:40:13;;;;;;;14.90;7.97;;;;;;;;;;5006979;28;20293;-71
2021/10/18 14:42:38;;;;;;;12.82;8.48;;;;;;;;;;5017395;28;20553;-70
2021/10/18 14:45:08;;;;;;;18.73;8.93;;;;;;;;;;5010784;28;20523;-70
2021/10/18 14:47:36;;;;;;;15.13;8.85;;;;;;;;;;5018575;28;20206;-70
2021/10/18 14:50:06;;;;;;;18.45;9.43;;;;;;;;;;5011984;28;20273;-70
2021/10/18 14:52:33;;;;;;;14.82;9.15;;;;;;;;;;5018257;28;20199;-70
2021/10/18 14:54:58;;;;;;;14.23;8.27;;;;;;;;;;5021034;28;20258;-70
2021/10/18 14:57:24;;;;;;;14.45;9.43;;;;;;;;;;5013129;28;20209;-70
2021/10/18 14:59:51;;;;;;;16.02;9.38;;;;;;;;;;5018205;28;20210;-70
2021/10/18 15:02:17;;;;;;;14.48;9.02;;;;;;;;;;5012208;28;20676;-70
2021/10/18 15:04:42;;;;;;;17.85;9.43;;;;;;;;;;5022194;28;20186;-70
2021/10/18 15:07:08;;;;;;;19.35;9.25;;;;;;;;;;5015291;28;20686;-70
2021/10/18 15:09:33;;;;;;;17.77;9.98;;;;;;;;;;5023272;28;20268;-70
2021/10/18 15:11:59;;;;;;;13.45;8.73;;;;;;;;;;5013495;28;21275;-70
2021/10/18 15:14:25;;;;;;;18.95;10.98;;;;;;;;;;5021747;28;20208;-70
2021/10/18 15:16:50;;;;;;;22.20;12.27;;;;;;;;;;5014175;28;20206;-69
2021/10/18 15:19:16;;;;;;;17.27;11.02;;;;;;;;;;5015742;28;20198;-70
2021/10/18 15:21:44;;;;;;;18.52;8.63;;;;;;;;;;5014722;28;20276;-70
2021/10/18 15:24:12;;;;;;;16.63;10.57;;;;;;;;;;5019412;28;20269;-70
2021/10/18 15:26:38;;;;;;;17.40;9.02;;;;;;;;;;5019406;28;20748;-69
2021/10/18 15:29:03;;;;;;;16.13;9.95;;;;;;;;;;5013775;28;20190;-69
2021/10/18 15:31:28;;;;;;;14.13;9.00;;;;;;;;;;5022185;28;20265;-70